Time;durP1;ratioP1;P1;durP2;ratioP2;P2;SDS_P1;SDS_P2;PMS_P1;PMS_P2;Temp;Humidity;BMP_temperature;BMP_pressure;BME280_temperature;BME280_humidity;BME280_pressure;Samples;Min_cycle;Max_cycle;Signal;HPM_P1;HPM_P2
2023/09/25 00:00:34;;;;;;;2.77;1.47;;;8.00;99.90;;;;;;5030408;28;20461;-60
2023/09/25 00:03:01;;;;;;;4.53;1.47;;;8.10;99.90;;;;;;5031192;28;20425;-61
2023/09/25 00:05:28;;;;;;;2.57;1.30;;;8.10;99.90;;;;;;5030457;28;20524;-61
2023/09/25 00:07:54;;;;;;;5.90;1.33;;;8.00;99.90;;;;;;5032566;28;20420;-61
2023/09/25 00:10:20;;;;;;;3.10;1.03;;;8.00;99.90;;;;;;5025070;28;20418;-61
2023/09/25 00:12:47;;;;;;;3.97;1.90;;;7.90;99.90;;;;;;5030242;28;20459;-61
2023/09/25 00:15:12;;;;;;;6.53;2.10;;;7.90;99.90;;;;;;5026700;28;20429;-61
2023/09/25 00:17:39;;;;;;;9.33;1.47;;;7.90;99.90;;;;;;5031891;28;20432;-61
2023/09/25 00:20:10;;;;;;;3.97;1.50;;;7.90;99.90;;;;;;5026328;28;20217;-61
2023/09/25 00:22:42;;;;;;;2.43;1.33;;;7.80;99.90;;;;;;5031871;28;20445;-61
2023/09/25 00:25:08;;;;;;;7.13;1.60;;;7.80;99.90;;;;;;5025735;28;20475;-61
2023/09/25 00:27:33;;;;;;;3.37;1.30;;;7.80;99.90;;;;;;5032444;28;20508;-61
2023/09/25 00:30:00;;;;;;;6.00;1.33;;;7.90;99.90;;;;;;5025782;28;20514;-61
2023/09/25 00:32:27;;;;;;;4.83;1.60;;;7.90;99.90;;;;;;5031688;28;20178;-61
2023/09/25 00:34:53;;;;;;;3.87;1.37;;;7.90;99.90;;;;;;5026093;28;20505;-61
2023/09/25 00:37:19;;;;;;;1.60;0.97;;;7.80;99.90;;;;;;5023687;28;20421;-61
2023/09/25 00:39:45;;;;;;;5.30;1.60;;;7.80;99.90;;;;;;5021407;28;20426;-61
2023/09/25 00:42:11;;;;;;;1.90;1.00;;;7.70;99.90;;;;;;5021156;28;20206;-61
2023/09/25 00:44:37;;;;;;;4.33;1.97;;;7.60;99.90;;;;;;5027982;28;20467;-61
2023/09/25 00:47:04;;;;;;;4.57;1.80;;;7.60;99.90;;;;;;5022011;28;20198;-61
2023/09/25 00:49:31;;;;;;;2.70;1.40;;;7.60;99.90;;;;;;5022554;28;20196;-61
2023/09/25 00:51:59;;;;;;;3.47;1.57;;;7.60;99.90;;;;;;5024223;28;20552;-61
2023/09/25 00:54:25;;;;;;;3.30;1.20;;;7.50;99.90;;;;;;5019568;28;20425;-61
2023/09/25 00:56:51;;;;;;;4.27;1.57;;;7.50;99.90;;;;;;5030925;28;20532;-61
2023/09/25 00:59:17;;;;;;;2.13;1.17;;;7.50;99.90;;;;;;5024865;28;20528;-61
2023/09/25 01:01:43;;;;;;;3.33;1.73;;;7.40;99.90;;;;;;5030427;28;20272;-61
2023/09/25 01:04:09;;;;;;;2.40;1.50;;;7.40;99.90;;;;;;5027262;28;20426;-61
2023/09/25 01:06:35;;;;;;;3.80;1.47;;;7.40;99.90;;;;;;5026896;28;20261;-61
2023/09/25 01:09:00;;;;;;;2.57;1.30;;;7.50;99.90;;;;;;5021299;28;20572;-61
2023/09/25 01:11:28;;;;;;;4.30;1.53;;;7.40;99.90;;;;;;5029647;28;20754;-61
2023/09/25 01:13:53;;;;;;;2.00;1.03;;;7.40;99.90;;;;;;5028494;28;20565;-61
2023/09/25 01:16:21;;;;;;;1.40;0.80;;;7.30;99.90;;;;;;5025487;28;20420;-61
2023/09/25 01:18:47;;;;;;;2.37;1.30;;;7.30;99.90;;;;;;5026017;28;20578;-61
2023/09/25 01:21:12;;;;;;;11.00;2.23;;;7.30;99.90;;;;;;5023870;28;20556;-61
2023/09/25 01:23:38;;;;;;;4.57;1.30;;;7.20;99.90;;;;;;5025956;28;20190;-61
2023/09/25 01:26:05;;;;;;;6.40;1.20;;;7.30;99.90;;;;;;5027451;28;20236;-61
2023/09/25 01:28:30;;;;;;;4.73;1.80;;;7.20;99.90;;;;;;5030383;28;20182;-61
2023/09/25 01:30:56;;;;;;;2.17;0.93;;;7.10;99.90;;;;;;5025641;28;20429;-61
2023/09/25 01:33:22;;;;;;;2.40;1.33;;;7.00;99.90;;;;;;5031169;28;20244;-61
2023/09/25 01:35:47;;;;;;;3.23;1.53;;;7.10;99.90;;;;;;5027404;28;20178;-61
2023/09/25 01:38:13;;;;;;;2.17;1.33;;;7.00;99.90;;;;;;5030395;28;21376;-61
2023/09/25 01:40:39;;;;;;;3.73;1.57;;;7.10;99.90;;;;;;5028839;28;20237;-61
2023/09/25 01:43:04;;;;;;;2.23;1.03;;;7.10;99.90;;;;;;5030823;28;20224;-61
2023/09/25 01:45:30;;;;;;;1.50;0.97;;;7.10;99.90;;;;;;5027698;28;20560;-61
2023/09/25 01:47:56;;;;;;;2.63;1.83;;;7.10;99.90;;;;;;5030536;28;20183;-61
2023/09/25 01:50:24;;;;;;;1.50;0.80;;;7.10;99.90;;;;;;5028398;28;20278;-61
2023/09/25 01:52:59;;;;;;;2.57;1.00;;;7.00;99.90;;;;;;5030727;28;20233;-62
2023/09/25 01:55:31;;;;;;;3.43;1.47;;;7.00;99.90;;;;;;5025794;28;20889;-61
2023/09/25 01:57:57;;;;;;;3.23;1.33;;;7.10;99.90;;;;;;5027795;28;21142;-61
2023/09/25 02:00:23;;;;;;;2.07;1.23;;;7.00;99.90;;;;;;5028059;28;20460;-61
2023/09/25 02:02:48;;;;;;;2.63;1.37;;;6.90;99.90;;;;;;5030816;28;20174;-61
2023/09/25 02:05:14;;;;;;;2.33;1.07;;;6.90;99.90;;;;;;5027914;28;20188;-61
2023/09/25 02:07:40;;;;;;;2.57;1.00;;;6.90;99.90;;;;;;5030364;28;20190;-61
2023/09/25 02:10:07;;;;;;;2.80;1.07;;;6.90;99.90;;;;;;5026296;28;20205;-61
2023/09/25 02:12:32;;;;;;;3.80;1.40;;;6.80;99.90;;;;;;5022135;28;20405;-61
2023/09/25 02:15:02;;;;;;;2.00;1.20;;;6.80;99.90;;;;;;5023333;28;20504;-60
2023/09/25 02:17:29;;;;;;;6.40;1.83;;;6.80;99.90;;;;;;5018489;28;20179;-61
2023/09/25 02:19:55;;;;;;;4.10;1.20;;;6.70;99.90;;;;;;5020000;28;20506;-61
2023/09/25 02:22:21;;;;;;;6.43;1.20;;;6.70;99.90;;;;;;5024464;28;20410;-61
2023/09/25 02:24:46;;;;;;;4.43;1.33;;;6.80;99.90;;;;;;5019930;28;20497;-61
2023/09/25 02:27:12;;;;;;;4.27;1.87;;;6.70;99.90;;;;;;5029564;28;20183;-60
2023/09/25 02:29:37;;;;;;;3.67;1.13;;;6.60;99.90;;;;;;5026540;28;20174;-61
2023/09/25 02:32:03;;;;;;;1.17;0.60;;;6.60;99.90;;;;;;5025738;28;20191;-61
2023/09/25 02:34:29;;;;;;;3.43;1.40;;;6.60;99.90;;;;;;5027428;28;20186;-60
2023/09/25 02:36:54;;;;;;;2.97;1.50;;;6.60;99.90;;;;;;5029294;28;20650;-61
2023/09/25 02:39:20;;;;;;;5.23;1.10;;;6.60;99.90;;;;;;5023095;28;20252;-60
2023/09/25 02:41:46;;;;;;;2.13;0.90;;;6.50;99.90;;;;;;5031240;28;20206;-61
2023/09/25 02:44:11;;;;;;;6.83;1.83;;;6.50;99.90;;;;;;5031354;28;20190;-61
2023/09/25 02:46:37;;;;;;;2.90;1.23;;;6.50;99.90;;;;;;5030770;28;20654;-61
2023/09/25 02:49:03;;;;;;;3.00;1.70;;;6.40;99.90;;;;;;5032017;28;20225;-61
2023/09/25 02:51:28;;;;;;;1.77;1.00;;;6.40;99.90;;;;;;5033718;28;20179;-60
2023/09/25 02:53:54;;;;;;;2.53;1.17;;;6.40;99.90;;;;;;5030753;28;20206;-61
2023/09/25 02:56:20;;;;;;;2.70;1.13;;;6.40;99.90;;;;;;5033665;28;20198;-61
2023/09/25 02:58:46;;;;;;;2.20;1.30;;;6.40;99.90;;;;;;5031892;28;20265;-61
2023/09/25 03:01:12;;;;;;;4.97;1.93;;;6.40;99.90;;;;;;5033378;28;20666;-61
2023/09/25 03:03:39;;;;;;;1.60;0.90;;;6.40;99.90;;;;;;5031803;28;20423;-61
2023/09/25 03:06:04;;;;;;;3.13;1.10;;;6.30;99.90;;;;;;5031689;28;20186;-61
2023/09/25 03:08:30;;;;;;;5.97;1.57;;;6.30;99.90;;;;;;5033136;28;20413;-61
2023/09/25 03:10:56;;;;;;;1.70;0.90;;;6.30;99.90;;;;;;5029240;28;20197;-61
2023/09/25 03:13:21;;;;;;;2.60;1.07;;;6.30;99.90;;;;;;5033502;28;20178;-61
2023/09/25 03:15:47;;;;;;;3.50;1.43;;;6.30;99.90;;;;;;5027316;28;20635;-61
2023/09/25 03:18:12;;;;;;;2.80;1.50;;;6.20;99.90;;;;;;5033238;28;20555;-61
2023/09/25 03:20:38;;;;;;;3.93;1.30;;;6.20;99.90;;;;;;5030403;28;20202;-61
2023/09/25 03:23:04;;;;;;;2.70;1.67;;;6.10;99.90;;;;;;5033366;28;20266;-61
2023/09/25 03:25:37;;;;;;;1.63;1.10;;;6.00;99.90;;;;;;5026183;28;20455;-61
2023/09/25 03:28:03;;;;;;;7.43;2.10;;;6.00;99.90;;;;;;5033054;28;20421;-61
2023/09/25 03:30:29;;;;;;;4.10;1.00;;;6.00;99.90;;;;;;5026558;28;20809;-61
2023/09/25 03:32:55;;;;;;;2.80;1.17;;;6.00;99.90;;;;;;5030877;28;20681;-61
2023/09/25 03:35:23;;;;;;;2.13;1.17;;;6.00;99.90;;;;;;5027724;28;20524;-61
2023/09/25 03:37:49;;;;;;;3.10;1.83;;;6.00;99.90;;;;;;5033251;28;20421;-61
2023/09/25 03:40:15;;;;;;;2.10;1.20;;;6.00;99.90;;;;;;5028383;28;20469;-61
2023/09/25 03:42:41;;;;;;;5.57;1.20;;;6.10;99.90;;;;;;5033448;28;20171;-60
2023/09/25 03:45:08;;;;;;;3.70;1.30;;;6.00;99.90;;;;;;5030259;28;20179;-60
2023/09/25 03:47:34;;;;;;;2.80;1.43;;;6.00;99.90;;;;;;5032435;28;20956;-60
2023/09/25 03:50:00;;;;;;;5.20;1.70;;;6.00;99.90;;;;;;5030756;28;20528;-60
2023/09/25 03:52:27;;;;;;;1.50;0.80;;;6.00;99.90;;;;;;5028591;28;20418;-60
2023/09/25 03:54:52;;;;;;;3.33;1.50;;;6.00;99.90;;;;;;5029192;28;20978;-60
2023/09/25 03:57:18;;;;;;;3.13;1.37;;;6.00;99.90;;;;;;5033175;28;20523;-60
2023/09/25 03:59:44;;;;;;;3.10;1.50;;;6.00;99.90;;;;;;5031124;28;20198;-60
2023/09/25 04:02:09;;;;;;;2.13;1.13;;;6.00;99.90;;;;;;5032596;28;20560;-60
2023/09/25 04:04:35;;;;;;;2.10;1.13;;;6.00;99.90;;;;;;5030501;28;20625;-60
2023/09/25 04:07:00;;;;;;;2.07;1.10;;;6.00;99.90;;;;;;5032959;28;20178;-60
2023/09/25 04:09:26;;;;;;;4.00;1.10;;;5.90;99.90;;;;;;5029762;28;20684;-60
2023/09/25 04:11:52;;;;;;;3.50;1.33;;;5.90;99.90;;;;;;5031554;28;20182;-60
2023/09/25 04:14:17;;;;;;;2.87;1.57;;;5.80;99.90;;;;;;5030469;28;20174;-60
2023/09/25 04:16:43;;;;;;;3.20;1.47;;;5.80;99.90;;;;;;5024833;28;20178;-60
2023/09/25 04:19:08;;;;;;;2.70;1.13;;;5.70;99.90;;;;;;5030929;28;20236;-60
2023/09/25 04:21:34;;;;;;;2.67;0.97;;;5.80;99.90;;;;;;5031822;28;20289;-60
2023/09/25 04:24:01;;;;;;;2.63;1.33;;;5.80;99.90;;;;;;5029263;28;20179;-60
2023/09/25 04:26:27;;;;;;;2.90;1.70;;;5.80;99.90;;;;;;5028395;28;20168;-60
2023/09/25 04:28:53;;;;;;;2.13;1.10;;;5.80;99.90;;;;;;5026600;28;20430;-60
2023/09/25 04:31:18;;;;;;;2.00;0.97;;;5.80;99.90;;;;;;5028101;28;20413;-60
2023/09/25 04:33:44;;;;;;;2.90;1.37;;;5.80;99.90;;;;;;5030946;28;20187;-60
2023/09/25 04:36:10;;;;;;;2.57;1.27;;;5.60;99.90;;;;;;5028167;28;20182;-60
2023/09/25 04:38:39;;;;;;;3.60;1.57;;;5.50;99.90;;;;;;5031360;28;20634;-60
2023/09/25 04:41:05;;;;;;;2.97;1.40;;;5.50;99.90;;;;;;5027374;28;20461;-60
2023/09/25 04:43:32;;;;;;;2.93;1.67;;;5.60;99.90;;;;;;5031315;28;20413;-60
2023/09/25 04:45:58;;;;;;;5.37;1.43;;;5.60;99.90;;;;;;5029592;28;20464;-60
2023/09/25 04:48:24;;;;;;;2.53;1.20;;;5.70;99.90;;;;;;5031427;28;20417;-62
2023/09/25 04:50:50;;;;;;;4.23;1.50;;;5.70;99.90;;;;;;5030150;28;20662;-62
2023/09/25 04:53:19;;;;;;;4.47;1.50;;;5.60;99.90;;;;;;5028359;28;20426;-62
2023/09/25 04:55:45;;;;;;;2.13;1.10;;;5.50;99.90;;;;;;5028900;28;20190;-62
2023/09/25 04:58:11;;;;;;;5.10;1.60;;;5.40;99.90;;;;;;5031283;28;20421;-62
2023/09/25 05:00:36;;;;;;;1.40;0.83;;;5.50;99.90;;;;;;5028597;28;20599;-62
2023/09/25 05:03:02;;;;;;;4.40;1.53;;;5.50;99.90;;;;;;5031863;28;20186;-62
2023/09/25 05:05:28;;;;;;;3.70;1.23;;;5.60;99.90;;;;;;5029066;28;20227;-62
2023/09/25 05:07:56;;;;;;;2.50;1.10;;;5.60;99.90;;;;;;5031216;28;20262;-62
2023/09/25 05:10:25;;;;;;;2.13;1.23;;;5.50;99.90;;;;;;5030710;28;20225;-62
2023/09/25 05:12:51;;;;;;;2.20;1.13;;;5.50;99.90;;;;;;5031602;28;20421;-62
2023/09/25 05:15:17;;;;;;;4.03;1.87;;;5.50;99.90;;;;;;5025156;28;20926;-62
2023/09/25 05:17:44;;;;;;;5.57;1.40;;;5.50;99.90;;;;;;5031475;28;20417;-62
2023/09/25 05:20:13;;;;;;;3.10;1.37;;;5.50;99.90;;;;;;5029254;28;20429;-62
2023/09/25 05:22:39;;;;;;;7.07;2.13;;;5.50;99.90;;;;;;5031618;28;20421;-62
2023/09/25 05:25:09;;;;;;;2.83;1.20;;;5.50;99.90;;;;;;5024179;28;20552;-62
2023/09/25 05:27:36;;;;;;;4.83;1.20;;;5.50;99.90;;;;;;5021070;28;20955;-63
2023/09/25 05:30:05;;;;;;;6.00;1.30;;;5.60;99.90;;;;;;5025328;28;20945;-62
2023/09/25 05:32:32;;;;;;;4.60;1.40;;;5.60;99.90;;;;;;5026606;28;20443;-63
2023/09/25 05:34:58;;;;;;;2.90;1.20;;;5.60;99.90;;;;;;5025642;28;20480;-63
2023/09/25 05:37:23;;;;;;;3.10;1.13;;;5.60;99.90;;;;;;5031103;28;20503;-62
2023/09/25 05:39:49;;;;;;;2.10;1.20;;;5.50;99.90;;;;;;5027600;28;20199;-63
2023/09/25 05:42:15;;;;;;;5.33;1.57;;;5.50;99.90;;;;;;5020928;28;20686;-62
2023/09/25 05:44:40;;;;;;;3.10;1.33;;;5.50;99.90;;;;;;5022060;28;20179;-62
2023/09/25 05:47:06;;;;;;;1.60;0.97;;;5.50;99.90;;;;;;5025262;28;20705;-63
2023/09/25 05:49:31;;;;;;;1.83;0.90;;;5.50;99.90;;;;;;5024467;28;20313;-63
2023/09/25 05:51:57;;;;;;;5.63;1.90;;;5.50;99.90;;;;;;5028933;28;20293;-63
2023/09/25 05:54:24;;;;;;;3.90;1.23;;;5.60;99.90;;;;;;5028670;28;20186;-63
2023/09/25 05:56:49;;;;;;;2.27;1.40;;;5.70;99.90;;;;;;5030772;28;20220;-62
2023/09/25 05:59:15;;;;;;;3.00;1.10;;;5.70;99.90;;;;;;5028453;28;20425;-63
2023/09/25 06:01:42;;;;;;;2.00;1.37;;;5.80;99.90;;;;;;5030200;28;20205;-63
2023/09/25 06:04:08;;;;;;;2.40;1.17;;;5.80;99.90;;;;;;5028656;28;20795;-63
2023/09/25 06:06:34;;;;;;;13.33;0.90;;;5.90;99.90;;;;;;5025057;28;20417;-63
2023/09/25 06:09:00;;;;;;;3.73;1.57;;;5.90;99.90;;;;;;5027169;28;20422;-63
2023/09/25 06:11:25;;;;;;;4.37;0.90;;;5.90;99.90;;;;;;5027090;28;20385;-63
2023/09/25 06:13:51;;;;;;;2.70;1.00;;;5.90;99.90;;;;;;5028128;28;20194;-63
2023/09/25 06:16:17;;;;;;;2.73;1.43;;;5.90;99.90;;;;;;5023239;28;20182;-63
2023/09/25 06:18:43;;;;;;;2.73;1.43;;;6.00;99.90;;;;;;5027205;28;20191;-63
2023/09/25 06:21:12;;;;;;;4.63;1.43;;;6.10;99.90;;;;;;5026100;28;20206;-63
2023/09/25 06:23:38;;;;;;;2.10;1.50;;;6.20;99.90;;;;;;5029440;28;20416;-63
2023/09/25 06:26:06;;;;;;;2.53;1.13;;;6.40;99.90;;;;;;5024342;28;20432;-63
2023/09/25 06:28:32;;;;;;;6.23;1.60;;;6.40;99.90;;;;;;5024225;28;20417;-63
2023/09/25 06:30:58;;;;;;;2.83;1.50;;;6.50;99.90;;;;;;5025089;28;20429;-63
2023/09/25 06:33:25;;;;;;;2.30;1.47;;;6.50;99.90;;;;;;5030173;28;20421;-63
2023/09/25 06:35:51;;;;;;;2.10;1.30;;;6.60;99.90;;;;;;5025480;28;20425;-63
2023/09/25 06:38:17;;;;;;;2.33;1.40;;;6.80;99.90;;;;;;5029653;28;20471;-63
2023/09/25 06:40:46;;;;;;;4.20;1.73;;;6.90;99.90;;;;;;5025623;28;20206;-63
2023/09/25 06:43:12;;;;;;;2.60;1.40;;;7.10;99.90;;;;;;5024291;28;20170;-63
2023/09/25 06:45:39;;;;;;;2.50;1.27;;;7.20;99.90;;;;;;5022338;28;20556;-63
2023/09/25 06:48:05;;;;;;;3.90;1.80;;;7.30;99.90;;;;;;5030126;28;20457;-63
2023/09/25 06:50:30;;;;;;;1.77;1.00;;;7.40;99.90;;;;;;5028221;28;20750;-63
2023/09/25 06:52:57;;;;;;;2.87;1.17;;;7.50;99.90;;;;;;5030126;28;20447;-63
2023/09/25 06:55:23;;;;;;;2.40;1.30;;;7.70;99.90;;;;;;5027957;28;20248;-63
2023/09/25 06:57:49;;;;;;;2.33;1.27;;;7.90;99.90;;;;;;5030181;28;20464;-63
2023/09/25 07:00:15;;;;;;;2.40;1.13;;;8.10;99.90;;;;;;5019593;28;20521;-63
2023/09/25 07:02:40;;;;;;;2.20;1.30;;;8.30;99.90;;;;;;5027213;28;20181;-63
2023/09/25 07:05:06;;;;;;;9.37;1.43;;;8.50;99.90;;;;;;5027733;28;20197;-63
2023/09/25 07:07:32;;;;;;;2.07;1.23;;;8.80;99.90;;;;;;5029922;28;20182;-63
2023/09/25 07:09:58;;;;;;;2.67;1.20;;;8.90;99.90;;;;;;5026866;28;20193;-63
2023/09/25 07:12:24;;;;;;;5.83;1.97;;;9.20;99.90;;;;;;5027116;28;20422;-62
2023/09/25 07:14:55;;;;;;;2.63;1.47;;;9.40;99.90;;;;;;5023955;28;20206;-63
2023/09/25 07:17:24;;;;;;;5.40;2.13;;;9.70;99.90;;;;;;5026375;28;20857;-63
2023/09/25 07:19:53;;;;;;;2.67;1.23;;;10.10;99.90;;;;;;5029121;28;20424;-63
2023/09/25 07:22:22;;;;;;;2.60;1.20;;;10.40;99.90;;;;;;5030772;28;20487;-63
2023/09/25 07:24:48;;;;;;;7.60;1.40;;;11.10;99.90;;;;;;5031409;28;20428;-63
2023/09/25 07:27:14;;;;;;;3.23;1.30;;;11.70;99.90;;;;;;5033070;28;20506;-63
2023/09/25 07:29:47;;;;;;;2.17;1.20;;;12.60;99.90;;;;;;5031491;28;20416;-62
2023/09/25 07:32:13;;;;;;;4.20;1.47;;;13.20;99.90;;;;;;5030409;28;21154;-62
2023/09/25 07:34:39;;;;;;;3.47;1.50;;;13.80;99.90;;;;;;5025103;28;20800;-63
2023/09/25 07:37:05;;;;;;;8.17;1.47;;;14.40;99.90;;;;;;5022505;28;20432;-65
2023/09/25 07:39:38;;;;;;;3.33;1.40;;;14.90;99.70;;;;;;5023549;28;20910;-64
2023/09/25 07:42:04;;;;;;;3.63;1.47;;;15.50;99.30;;;;;;5024595;28;20214;-64
2023/09/25 07:44:33;;;;;;;3.00;1.40;;;16.20;98.20;;;;;;5021349;28;20413;-64
2023/09/25 07:47:00;;;;;;;6.03;1.40;;;16.60;97.00;;;;;;5021253;28;20425;-64
2023/09/25 07:49:27;;;;;;;3.53;1.80;;;17.00;96.20;;;;;;5031216;28;20468;-64
2023/09/25 07:51:53;;;;;;;4.70;1.83;;;17.20;95.90;;;;;;5024790;28;20421;-63
2023/09/25 07:54:19;;;;;;;4.03;1.40;;;17.80;94.90;;;;;;5030058;28;20436;-63
2023/09/25 07:56:47;;;;;;;5.50;1.60;;;17.90;94.60;;;;;;5022957;28;20290;-63
2023/09/25 07:59:13;;;;;;;4.53;1.17;;;18.10;93.70;;;;;;5022783;28;20433;-63
2023/09/25 08:01:39;;;;;;;5.30;1.50;;;18.10;93.60;;;;;;5021818;28;20561;-62
2023/09/25 08:04:05;;;;;;;3.53;1.60;;;17.80;93.90;;;;;;5024752;28;20456;-62
2023/09/25 08:06:31;;;;;;;2.90;1.33;;;18.00;93.40;;;;;;5027726;28;20417;-62
2023/09/25 08:08:57;;;;;;;6.97;1.67;;;18.20;93.50;;;;;;5023744;28;20436;-62
2023/09/25 08:11:24;;;;;;;2.60;1.40;;;18.00;93.30;;;;;;5024028;28;20187;-62
2023/09/25 08:13:50;;;;;;;4.60;1.70;;;17.90;93.40;;;;;;5025167;28;20175;-62
2023/09/25 08:16:18;;;;;;;3.70;0.90;;;17.60;94.50;;;;;;5030175;28;20571;-62
2023/09/25 08:18:44;;;;;;;3.67;1.20;;;17.70;93.90;;;;;;5030816;28;20484;-62
2023/09/25 08:21:10;;;;;;;2.37;1.07;;;17.90;93.00;;;;;;5023344;28;20556;-62
2023/09/25 08:23:35;;;;;;;4.07;1.70;;;17.40;93.30;;;;;;5017892;28;20845;-62
2023/09/25 08:26:05;;;;;;;3.93;1.40;;;17.60;93.70;;;;;;5028066;28;20178;-62
2023/09/25 08:28:31;;;;;;;4.57;1.93;;;17.60;93.00;;;;;;5018570;28;20690;-62
2023/09/25 08:30:57;;;;;;;3.93;1.67;;;17.60;93.10;;;;;;5029611;28;20576;-62
2023/09/25 08:33:22;;;;;;;2.40;1.30;;;17.60;93.30;;;;;;5030521;28;20508;-62
2023/09/25 08:35:48;;;;;;;5.73;1.83;;;17.50;93.50;;;;;;5028459;28;20515;-62
2023/09/25 08:38:14;;;;;;;3.67;1.20;;;17.70;93.70;;;;;;5028761;28;20205;-62
2023/09/25 08:40:47;;;;;;;3.80;1.20;;;17.70;92.70;;;;;;5022342;28;20208;-63
2023/09/25 08:43:13;;;;;;;3.37;1.40;;;17.60;93.20;;;;;;5029710;28;20175;-63
2023/09/25 08:45:40;;;;;;;7.90;1.77;;;17.40;93.30;;;;;;5025450;28;20425;-63
2023/09/25 08:48:08;;;;;;;2.40;1.20;;;17.50;93.30;;;;;;5029250;28;20423;-63
2023/09/25 08:50:34;;;;;;;3.70;1.37;;;17.70;92.60;;;;;;5025012;28;20532;-63
2023/09/25 08:53:00;;;;;;;14.83;1.20;;;17.60;93.20;;;;;;5030698;28;20417;-64
2023/09/25 08:55:27;;;;;;;3.80;1.70;;;17.80;93.00;;;;;;5025121;28;20968;-63
2023/09/25 08:57:53;;;;;;;2.93;1.30;;;17.80;93.00;;;;;;5025022;28;20198;-64
2023/09/25 09:00:19;;;;;;;2.90;1.23;;;18.20;93.30;;;;;;5024645;28;21076;-64
2023/09/25 09:02:45;;;;;;;5.33;1.77;;;18.10;92.70;;;;;;5030398;28;20882;-63
2023/09/25 09:05:11;;;;;;;2.17;1.07;;;18.50;91.80;;;;;;5028353;28;20421;-63
2023/09/25 09:07:39;;;;;;;3.00;1.47;;;18.50;92.40;;;;;;5031530;28;20178;-64
2023/09/25 09:10:05;;;;;;;3.30;1.20;;;18.90;91.80;;;;;;5028732;28;20475;-64
2023/09/25 09:12:31;;;;;;;3.63;1.53;;;18.80;92.00;;;;;;5030632;28;20429;-64
2023/09/25 09:14:57;;;;;;;7.13;1.70;;;18.90;91.90;;;;;;5029369;28;20753;-64
2023/09/25 09:17:26;;;;;;;2.60;1.50;;;19.40;90.50;;;;;;5031418;28;20186;-64
2023/09/25 09:19:52;;;;;;;5.00;1.90;;;19.40;91.10;;;;;;5029490;28;20221;-64
2023/09/25 09:22:19;;;;;;;2.50;1.37;;;19.00;91.60;;;;;;5031361;28;20468;-64
2023/09/25 09:24:45;;;;;;;2.60;1.20;;;19.30;91.30;;;;;;5027210;28;21123;-64
2023/09/25 09:27:11;;;;;;;2.33;1.03;;;19.50;90.70;;;;;;5025100;28;20412;-64
2023/09/25 09:29:44;;;;;;;2.13;1.20;;;19.20;91.10;;;;;;5025723;28;20428;-64
2023/09/25 09:32:11;;;;;;;6.00;1.20;;;19.30;91.40;;;;;;5022845;28;20424;-64
2023/09/25 09:34:41;;;;;;;4.60;1.37;;;19.10;91.20;;;;;;5016710;28;20429;-63
2023/09/25 09:37:10;;;;;;;7.00;1.93;;;18.60;91.60;;;;;;5026330;28;20412;-63
2023/09/25 09:39:36;;;;;;;2.03;1.10;;;18.50;92.20;;;;;;5025914;28;20429;-63
2023/09/25 09:42:05;;;;;;;3.30;1.07;;;18.40;91.80;;;;;;5023940;28;20460;-63
2023/09/25 09:44:35;;;;;;;3.40;1.00;;;18.10;91.60;;;;;;5024152;28;23195;-63
2023/09/25 09:47:03;;;;;;;2.67;1.47;;;17.70;92.80;;;;;;5025674;28;20417;-63
2023/09/25 09:49:31;;;;;;;3.10;1.50;;;17.70;92.40;;;;;;5028467;28;20420;-63
2023/09/25 09:51:59;;;;;;;2.60;1.13;;;17.60;92.10;;;;;;5028709;28;20428;-63
2023/09/25 09:54:28;;;;;;;2.50;1.10;;;17.50;92.40;;;;;;5028329;28;20439;-63
2023/09/25 09:56:59;;;;;;;6.33;1.20;;;17.30;93.20;;;;;;5027305;28;20436;-63
2023/09/25 09:59:25;;;;;;;3.53;1.20;;;17.30;92.90;;;;;;5020610;28;20439;-63
2023/09/25 10:01:51;;;;;;;3.20;0.97;;;17.30;92.60;;;;;;5023759;28;20461;-63
2023/09/25 10:04:16;;;;;;;1.90;1.07;;;17.40;92.80;;;;;;5028484;28;20551;-63
2023/09/25 10:06:51;;;;;;;6.20;1.47;;;17.40;92.90;;;;;;5030667;28;20189;-63
2023/09/25 10:09:18;;;;;;;6.00;1.37;;;17.60;92.30;;;;;;5020996;28;20175;-63
2023/09/25 10:11:47;;;;;;;2.20;1.47;;;17.70;92.10;;;;;;5029580;28;20802;-63
2023/09/25 10:14:13;;;;;;;2.97;1.30;;;17.70;93.00;;;;;;5021599;28;20905;-63
2023/09/25 10:16:57;;;;;;;3.53;0.97;;;17.90;92.00;;;;;;5030204;28;20412;-63
2023/09/25 10:19:53;;;;;;;2.57;1.20;;;17.90;92.10;;;;;;5020867;28;20223;-63
2023/09/25 10:22:26;;;;;;;2.83;1.10;;;17.80;93.20;;;;;;5029296;28;20465;-63
2023/09/25 10:25:14;;;;;;;2.17;0.93;;;18.00;92.10;;;;;;5026958;28;20440;-63
2023/09/25 10:27:43;;;;;;;4.13;1.33;;;18.00;91.90;;;;;;5028397;28;20401;-63
2023/09/25 10:30:14;;;;;;;1.90;0.90;;;18.20;91.50;;;;;;5027586;28;20811;-63
2023/09/25 10:32:55;;;;;;;3.00;1.70;;;18.10;92.40;;;;;;5024507;28;20420;-63
2023/09/25 10:36:04;;;;;;;7.10;1.73;;;18.30;92.30;;;;;;5022713;28;20418;-63
2023/09/25 10:38:34;;;;;;;2.60;1.30;;;18.50;91.50;;;;;;4985306;28;20830;-63
2023/09/25 10:41:04;;;;;;;2.63;1.00;;;18.50;91.70;;;;;;4982361;28;20471;-63
2023/09/25 10:43:31;;;;;;;2.83;1.23;;;18.60;90.80;;;;;;5011544;28;20418;-63
2023/09/25 10:45:57;;;;;;;17.80;1.57;;;18.50;91.60;;;;;;5028918;28;20937;-63
2023/09/25 10:48:24;;;;;;;3.00;0.80;;;18.30;92.40;;;;;;5030165;28;20405;-63
2023/09/25 10:50:50;;;;;;;1.93;1.03;;;18.70;92.10;;;;;;5025983;28;20426;-63
2023/09/25 10:53:17;;;;;;;2.53;1.10;;;18.80;90.60;;;;;;5018294;28;20907;-62
2023/09/25 10:55:43;;;;;;;2.90;0.87;;;18.70;92.40;;;;;;5018087;28;20425;-63
2023/09/25 10:58:12;;;;;;;2.47;1.20;;;18.80;91.80;;;;;;5032291;28;20474;-63
2023/09/25 11:00:39;;;;;;;3.10;1.73;;;19.00;90.90;;;;;;5029600;28;20530;-63
2023/09/25 11:03:06;;;;;;;2.60;1.13;;;19.20;90.10;;;;;;5032621;28;20425;-63
2023/09/25 11:05:33;;;;;;;4.40;1.40;;;19.30;90.10;;;;;;5029083;28;20421;-63
2023/09/25 11:07:59;;;;;;;5.23;1.27;;;19.10;91.30;;;;;;5031069;28;20785;-63
2023/09/25 11:10:32;;;;;;;2.30;1.13;;;19.10;90.60;;;;;;5026925;28;20425;-63
2023/09/25 11:13:00;;;;;;;1.90;1.07;;;19.20;90.60;;;;;;5031155;28;20890;-63
2023/09/25 11:15:27;;;;;;;3.27;1.70;;;19.30;89.60;;;;;;5027701;28;20470;-63
2023/09/25 11:17:53;;;;;;;4.73;1.30;;;19.20;90.50;;;;;;5033701;28;20769;-63
2023/09/25 11:20:22;;;;;;;3.77;1.13;;;19.30;90.00;;;;;;5029299;28;20426;-64
2023/09/25 11:22:49;;;;;;;2.60;1.30;;;19.50;90.40;;;;;;5026209;28;20421;-63
2023/09/25 11:25:16;;;;;;;2.50;1.07;;;19.40;90.60;;;;;;5026325;28;20429;-64
2023/09/25 11:27:56;;;;;;;2.43;1.10;;;19.60;91.90;;;;;;5033168;28;20413;-64
2023/09/25 11:30:27;;;;;;;3.20;1.30;;;19.90;89.20;;;;;;5024672;28;20458;-63
2023/09/25 11:32:53;;;;;;;3.53;1.67;;;19.80;91.00;;;;;;5028712;28;20639;-63
2023/09/25 11:35:20;;;;;;;4.37;1.10;;;19.80;90.60;;;;;;5027228;28;20440;-63
2023/09/25 11:37:59;;;;;;;2.33;1.00;;;19.80;91.50;;;;;;5027618;28;20182;-63
2023/09/25 11:40:27;;;;;;;3.10;1.33;;;20.10;91.20;;;;;;5018608;28;20413;-64
2023/09/25 11:42:53;;;;;;;4.43;1.33;;;20.30;89.80;;;;;;5031761;28;20504;-64
2023/09/25 11:45:19;;;;;;;2.70;1.60;;;20.40;88.80;;;;;;5025863;28;20453;-64
2023/09/25 11:47:45;;;;;;;4.13;1.37;;;20.50;87.70;;;;;;5025249;28;20920;-64
2023/09/25 11:50:13;;;;;;;2.37;1.27;;;20.10;86.90;;;;;;5029440;28;20174;-63
2023/09/25 11:52:40;;;;;;;7.53;1.27;;;19.70;88.50;;;;;;5028452;28;20436;-64
2023/09/25 11:55:09;;;;;;;3.27;1.40;;;19.90;88.40;;;;;;5020419;28;20433;-63
2023/09/25 11:57:35;;;;;;;10.47;1.07;;;20.00;90.80;;;;;;5028671;28;20445;-64
2023/09/25 12:00:01;;;;;;;2.50;1.20;;;20.40;88.40;;;;;;5028689;28;20479;-64
2023/09/25 12:02:28;;;;;;;6.07;1.87;;;20.60;87.30;;;;;;5019764;28;20240;-64
2023/09/25 12:04:54;;;;;;;2.27;1.20;;;20.90;86.80;;;;;;5022064;28;20257;-64
2023/09/25 12:07:20;;;;;;;4.83;1.60;;;20.60;88.10;;;;;;5026001;28;20537;-64
2023/09/25 12:09:47;;;;;;;2.03;0.80;;;20.70;90.00;;;;;;5030296;28;20183;-64
2023/09/25 12:12:13;;;;;;;2.40;1.20;;;21.00;87.80;;;;;;5025858;28;20834;-64
2023/09/25 12:14:39;;;;;;;2.03;1.30;;;21.00;87.40;;;;;;5026934;28;20428;-64
2023/09/25 12:17:07;;;;;;;2.63;1.03;;;21.10;87.30;;;;;;5031193;28;20873;-64
2023/09/25 12:19:33;;;;;;;4.20;1.13;;;21.50;84.70;;;;;;5030172;28;20543;-64
2023/09/25 12:21:59;;;;;;;2.80;1.30;;;21.60;86.80;;;;;;5031955;28;20465;-63
2023/09/25 12:24:25;;;;;;;2.10;1.10;;;21.80;84.90;;;;;;5024722;28;20953;-64
2023/09/25 12:26:51;;;;;;;5.10;1.33;;;21.70;85.80;;;;;;5025948;28;20512;-63
2023/09/25 12:29:17;;;;;;;4.97;1.50;;;21.50;85.90;;;;;;5026560;28;20191;-64
2023/09/25 12:31:43;;;;;;;10.40;1.50;;;21.90;83.90;;;;;;5018080;28;20174;-64
2023/09/25 12:34:08;;;;;;;3.67;1.13;;;21.60;86.00;;;;;;5024205;28;20439;-63
2023/09/25 12:36:34;;;;;;;3.33;1.27;;;21.60;85.50;;;;;;5026937;28;20181;-63
2023/09/25 12:39:00;;;;;;;2.00;1.00;;;21.60;86.80;;;;;;5027707;28;20201;-63
2023/09/25 12:41:25;;;;;;;3.73;1.33;;;21.60;86.80;;;;;;5030040;28;20209;-63
2023/09/25 12:43:51;;;;;;;3.27;1.57;;;21.80;85.10;;;;;;5028875;28;20175;-63
2023/09/25 12:46:17;;;;;;;2.30;1.10;;;21.80;85.10;;;;;;5023175;28;20187;-63
2023/09/25 12:48:43;;;;;;;9.33;1.57;;;21.80;85.10;;;;;;5020416;28;20182;-63
2023/09/25 12:51:08;;;;;;;5.70;1.20;;;21.80;85.80;;;;;;5030312;28;20177;-63